Time;durP1;ratioP1;P1;durP2;ratioP2;P2;SDS_P1;SDS_P2;PMS_P1;PMS_P2;Temp;Humidity;BMP_temperature;BMP_pressure;BME280_temperature;BME280_humidity;BME280_pressure;Samples;Min_cycle;Max_cycle;Signal;HPM_P1;HPM_P2
2022/05/26 02:12:16;;;;;;;3.13;1.43;;;15.10;99.90;;;;;;5115392;27;20493;-92
2022/05/26 02:14:46;;;;;;;5.27;1.37;;;15.10;99.90;;;;;;5114924;28;20483;-91
2022/05/26 02:17:19;;;;;;;6.50;1.40;;;15.00;99.90;;;;;;5114436;28;20481;-92
2022/05/26 02:19:51;;;;;;;4.30;1.30;;;15.00;99.90;;;;;;5104716;28;20457;-92
2022/05/26 02:22:22;;;;;;;3.47;1.50;;;14.90;99.90;;;;;;5093042;28;20897;-92
2022/05/26 02:35:15;;;;;;;3.03;1.47;;;14.70;99.90;;;;;;5110528;27;20959;-91
2022/05/26 02:37:42;;;;;;;5.93;1.83;;;14.60;99.90;;;;;;5111018;28;20442;-91
2022/05/26 02:40:11;;;;;;;4.60;1.60;;;14.50;99.90;;;;;;5110733;28;20437;-91
2022/05/26 02:42:41;;;;;;;5.80;1.60;;;14.50;99.90;;;;;;5110976;28;20873;-92
2022/05/26 02:45:09;;;;;;;2.67;1.60;;;14.50;99.90;;;;;;5111007;28;20486;-92
2022/05/26 02:47:48;;;;;;;2.50;1.50;;;14.40;99.90;;;;;;5110566;28;20502;-91
2022/05/26 02:50:33;;;;;;;1.50;1.40;;;14.40;99.90;;;;;;5110529;28;20518;-91
2022/05/26 02:53:08;;;;;;;1.87;1.50;;;14.40;99.90;;;;;;5110298;28;20946;-91
2022/05/26 02:55:46;;;;;;;1.70;1.60;;;14.50;99.90;;;;;;5110592;28;20958;-91
2022/05/26 02:58:22;;;;;;;1.40;1.30;;;14.30;99.90;;;;;;5110438;28;20941;-91
2022/05/26 03:00:57;;;;;;;2.00;1.40;;;14.30;99.90;;;;;;5110394;28;20465;-91
2022/05/26 03:03:29;;;;;;;1.30;1.20;;;14.30;99.90;;;;;;5109739;28;20454;-91
2022/05/26 03:06:03;;;;;;;2.70;1.53;;;14.50;99.90;;;;;;5110468;28;20447;-91
2022/05/26 03:08:33;;;;;;;2.20;1.73;;;14.30;99.90;;;;;;5110159;28;20480;-92
2022/05/26 03:11:06;;;;;;;1.80;1.40;;;14.20;99.90;;;;;;5110543;28;20454;-91
2022/05/26 03:13:33;;;;;;;9.03;1.97;;;14.20;99.90;;;;;;5110052;28;20485;-92
2022/05/26 03:16:00;;;;;;;1.70;1.50;;;14.10;99.90;;;;;;5110289;28;20450;-91
2022/05/26 03:18:26;;;;;;;1.50;1.40;;;14.10;99.90;;;;;;5110105;28;20442;-91
2022/05/26 03:20:53;;;;;;;3.53;1.30;;;14.10;99.90;;;;;;5110222;28;20428;-91
2022/05/26 03:23:21;;;;;;;1.50;1.40;;;14.10;99.90;;;;;;5109915;28;20465;-91
2022/05/26 03:25:48;;;;;;;4.70;1.30;;;14.10;99.90;;;;;;5109774;28;20438;-91
2022/05/26 03:28:15;;;;;;;1.33;1.23;;;14.10;99.90;;;;;;5112076;28;20787;-92
2022/05/26 03:30:41;;;;;;;1.60;1.47;;;14.00;99.90;;;;;;5130175;27;20461;-91
2022/05/26 03:33:08;;;;;;;3.47;1.40;;;14.00;99.90;;;;;;5130244;27;20481;-92
2022/05/26 03:41:06;;;;;;;2.40;1.53;;;13.80;99.90;;;;;;5129972;27;20455;-91
2022/05/26 03:43:35;;;;;;;1.30;1.20;;;13.80;99.90;;;;;;5130028;28;20476;-92
2022/05/26 03:46:02;;;;;;;1.70;1.60;;;13.80;99.90;;;;;;5118936;28;20499;-92
2022/05/26 03:48:29;;;;;;;2.90;1.40;;;13.80;99.90;;;;;;5116539;28;20438;-92
2022/05/26 03:50:56;;;;;;;2.07;1.60;;;13.80;99.90;;;;;;5115881;28;20445;-92
2022/05/26 03:53:24;;;;;;;2.90;1.50;;;13.70;99.90;;;;;;5116255;28;20481;-91
2022/05/26 03:55:51;;;;;;;1.97;1.50;;;13.80;99.90;;;;;;5116471;28;20457;-92
2022/05/26 03:58:18;;;;;;;2.30;1.47;;;13.80;99.90;;;;;;5116042;28;20792;-91
2022/05/26 04:00:45;;;;;;;1.50;1.40;;;13.90;99.90;;;;;;5116496;28;20465;-92
2022/05/26 04:03:12;;;;;;;2.77;1.43;;;13.90;99.90;;;;;;5115913;28;20475;-90
2022/05/26 04:05:39;;;;;;;2.03;1.57;;;13.90;99.90;;;;;;5115866;28;20511;-91
2022/05/26 04:08:06;;;;;;;2.97;1.30;;;13.90;99.90;;;;;;5119469;28;20480;-92
2022/05/26 04:10:35;;;;;;;5.20;1.40;;;13.90;99.90;;;;;;5116058;28;20453;-92
2022/05/26 04:13:01;;;;;;;2.30;1.50;;;14.10;99.90;;;;;;5125587;28;20440;-92
2022/05/26 04:15:28;;;;;;;1.83;1.37;;;13.90;99.90;;;;;;5123771;28;20492;-91
2022/05/26 04:17:55;;;;;;;2.27;1.63;;;13.90;99.90;;;;;;5115952;28;20812;-91
2022/05/26 04:20:23;;;;;;;2.23;1.40;;;13.90;99.90;;;;;;5115794;28;20465;-91
2022/05/26 04:22:51;;;;;;;3.57;1.47;;;14.00;99.90;;;;;;5115856;28;20453;-92
2022/05/26 04:25:20;;;;;;;3.23;1.50;;;14.00;99.90;;;;;;5115602;28;20949;-91
2022/05/26 04:27:48;;;;;;;1.93;1.50;;;14.10;99.90;;;;;;5115650;28;20967;-91
2022/05/26 04:30:15;;;;;;;2.70;1.50;;;14.10;99.90;;;;;;5096085;28;20450;-92
2022/05/26 04:32:42;;;;;;;10.63;1.73;;;14.10;99.90;;;;;;5095012;28;20435;-93
2022/05/26 04:35:10;;;;;;;1.40;1.30;;;14.20;99.90;;;;;;5094580;28;20485;-91
2022/05/26 04:37:38;;;;;;;1.87;1.73;;;14.20;99.90;;;;;;5094897;28;20434;-91
2022/05/26 04:40:06;;;;;;;4.93;1.67;;;14.40;99.90;;;;;;5094768;28;20461;-91
2022/05/26 04:42:34;;;;;;;3.57;1.50;;;14.40;99.90;;;;;;5095152;28;20458;-92
2022/05/26 04:45:02;;;;;;;4.07;1.80;;;14.40;99.90;;;;;;5094468;28;20466;-91
2022/05/26 04:47:29;;;;;;;2.00;1.57;;;14.50;99.90;;;;;;5094816;28;20439;-91
2022/05/26 04:49:56;;;;;;;1.57;1.40;;;14.50;99.90;;;;;;5094824;28;20450;-92
2022/05/26 04:52:24;;;;;;;2.90;1.60;;;14.50;99.90;;;;;;5095169;28;20455;-91
2022/05/26 04:54:53;;;;;;;1.77;1.40;;;14.70;99.90;;;;;;5095035;28;20540;-91
2022/05/26 04:57:22;;;;;;;3.10;1.30;;;14.70;99.90;;;;;;5093874;28;20485;-91
2022/05/26 04:59:48;;;;;;;1.90;1.53;;;14.80;99.90;;;;;;5094797;28;20454;-92
2022/05/26 05:02:18;;;;;;;2.90;1.53;;;14.90;99.90;;;;;;5094406;28;20466;-90
2022/05/26 05:04:48;;;;;;;3.93;1.30;;;15.00;99.90;;;;;;5094136;28;20512;-92
2022/05/26 05:07:15;;;;;;;4.90;1.60;;;15.20;99.90;;;;;;5094686;28;20462;-92
2022/05/26 05:09:42;;;;;;;2.47;1.27;;;15.10;99.90;;;;;;5093881;28;20450;-92
2022/05/26 05:12:13;;;;;;;2.30;1.50;;;15.20;99.90;;;;;;5094538;28;20496;-92
2022/05/26 05:14:42;;;;;;;1.40;1.30;;;15.30;99.90;;;;;;5094020;28;20545;-92
2022/05/26 05:17:09;;;;;;;3.27;1.27;;;15.30;99.90;;;;;;5094179;28;20458;-91
2022/05/26 05:19:38;;;;;;;1.77;1.40;;;15.30;99.90;;;;;;5094882;28;20458;-91
2022/05/26 05:22:10;;;;;;;6.30;1.43;;;15.30;99.90;;;;;;5094125;28;20463;-92
2022/05/26 05:24:42;;;;;;;1.50;1.40;;;15.20;99.90;;;;;;5093740;28;20561;-91
2022/05/26 05:27:16;;;;;;;1.40;1.20;;;15.20;99.90;;;;;;5093194;28;20454;-92
2022/05/26 05:29:44;;;;;;;1.40;1.30;;;15.20;99.90;;;;;;5093442;28;20460;-91
2022/05/26 05:32:17;;;;;;;3.00;1.43;;;15.20;99.90;;;;;;5093605;28;20454;-91
2022/05/26 05:34:50;;;;;;;2.33;1.67;;;15.20;99.90;;;;;;5092671;28;20884;-91
2022/05/26 05:37:17;;;;;;;3.40;1.93;;;15.20;99.90;;;;;;5093251;28;20435;-91
2022/05/26 05:39:44;;;;;;;1.50;1.20;;;15.10;99.90;;;;;;5093214;28;20435;-91
2022/05/26 05:42:11;;;;;;;2.90;1.67;;;15.10;99.90;;;;;;5094346;28;20473;-91
2022/05/26 05:44:38;;;;;;;4.47;1.60;;;15.10;99.90;;;;;;5094148;28;20513;-91
2022/05/26 05:47:06;;;;;;;1.77;1.20;;;15.10;99.90;;;;;;5094505;28;20474;-91
2022/05/26 05:49:34;;;;;;;3.57;1.40;;;15.10;99.90;;;;;;5093700;28;20462;-91
2022/05/26 05:52:09;;;;;;;12.33;1.57;;;15.10;99.90;;;;;;5094203;28;20827;-92
2022/05/26 05:54:36;;;;;;;6.70;1.30;;;15.20;99.90;;;;;;5093765;28;20887;-91
2022/05/26 05:57:03;;;;;;;2.67;1.13;;;15.30;99.90;;;;;;5093629;28;20459;-91
2022/05/26 05:59:29;;;;;;;3.13;1.27;;;15.50;99.90;;;;;;5094873;28;20455;-91
2022/05/26 06:01:56;;;;;;;2.63;1.60;;;15.70;99.90;;;;;;5093358;28;20825;-91
2022/05/26 06:04:23;;;;;;;2.83;1.20;;;15.80;99.90;;;;;;5092683;28;20494;-91
2022/05/26 06:06:51;;;;;;;2.00;1.50;;;15.80;99.90;;;;;;5093339;28;20520;-91
2022/05/26 06:09:20;;;;;;;1.50;1.40;;;15.90;99.90;;;;;;5092942;28;20902;-91
2022/05/26 06:11:49;;;;;;;4.30;1.40;;;15.90;99.90;;;;;;5092628;28;20458;-91
2022/05/26 06:14:16;;;;;;;2.03;1.20;;;15.80;99.90;;;;;;5092186;28;21059;-92
2022/05/26 06:16:45;;;;;;;1.40;1.30;;;16.00;99.90;;;;;;5092782;28;20443;-91
2022/05/26 06:19:12;;;;;;;1.73;1.37;;;16.20;99.90;;;;;;5092734;28;20450;-91
2022/05/26 06:21:39;;;;;;;2.50;1.30;;;16.40;99.90;;;;;;5092975;28;20454;-92
2022/05/26 06:24:07;;;;;;;5.33;1.30;;;16.50;99.90;;;;;;5092752;28;20462;-91
2022/05/26 06:26:35;;;;;;;3.47;1.80;;;16.40;99.90;;;;;;5092768;28;20553;-91
2022/05/26 06:37:13;;;;;;;1.63;1.20;;;16.30;99.90;;;;;;5115259;28;20421;-91
2022/05/26 06:37:30;;;;;;;3.50;1.40;;;16.40;99.90;;;;;;5138252;28;20380;-94
2022/05/26 06:39:57;;;;;;;2.60;1.40;;;16.40;99.90;;;;;;5138006;28;20434;-95
2022/05/26 06:42:26;;;;;;;3.77;1.40;;;16.40;99.90;;;;;;5138010;28;20440;-95
2022/05/26 06:44:53;;;;;;;3.00;1.20;;;16.30;99.90;;;;;;5137703;28;20450;-95
2022/05/26 06:47:23;;;;;;;4.93;1.40;;;16.30;99.90;;;;;;5136548;28;20447;-92
2022/05/26 06:49:51;;;;;;;3.20;1.40;;;16.40;99.90;;;;;;5117320;28;20433;-91
2022/05/26 06:52:19;;;;;;;2.13;1.50;;;16.40;99.90;;;;;;5113854;28;20465;-91
2022/05/26 06:54:47;;;;;;;2.03;1.40;;;16.30;99.90;;;;;;5113093;28;20456;-91
2022/05/26 06:57:15;;;;;;;1.53;1.43;;;16.50;99.90;;;;;;5112409;28;20457;-91
2022/05/26 06:59:44;;;;;;;3.50;1.60;;;16.80;99.90;;;;;;5112764;28;20461;-90
2022/05/26 07:02:12;;;;;;;4.90;1.80;;;17.10;99.90;;;;;;5112755;28;20432;-90
2022/05/26 07:04:39;;;;;;;3.03;1.60;;;17.20;99.90;;;;;;5132466;28;20470;-92
2022/05/26 07:07:07;;;;;;;1.97;1.30;;;17.30;99.90;;;;;;5116366;28;20428;-91
2022/05/26 07:09:34;;;;;;;2.80;1.50;;;17.30;99.90;;;;;;5112880;28;21020;-90
2022/05/26 07:12:01;;;;;;;3.07;1.90;;;17.20;99.90;;;;;;5112510;28;20522;-91
2022/05/26 07:14:28;;;;;;;5.40;1.87;;;17.40;99.90;;;;;;5112226;28;20516;-90
2022/05/26 07:16:56;;;;;;;3.27;1.67;;;17.70;99.90;;;;;;5107074;28;20905;-91
2022/05/26 07:19:23;;;;;;;5.57;1.43;;;17.90;99.90;;;;;;5092601;28;20455;-90
2022/05/26 07:21:50;;;;;;;3.03;1.60;;;18.00;99.90;;;;;;5095726;28;20433;-90
2022/05/26 07:24:18;;;;;;;3.43;1.60;;;18.00;99.90;;;;;;5095188;28;20498;-91
2022/05/26 07:26:45;;;;;;;3.30;2.30;;;18.00;99.90;;;;;;5096111;28;20493;-91
2022/05/26 07:29:12;;;;;;;3.80;1.60;;;18.10;99.90;;;;;;5106046;28;20831;-90
2022/05/26 07:31:39;;;;;;;3.93;1.60;;;18.20;99.90;;;;;;5116344;28;20428;-92
2022/05/26 07:34:07;;;;;;;4.00;1.83;;;18.10;99.90;;;;;;5116407;28;20513;-91
2022/05/26 07:42:07;;;;;;;2.80;1.83;;;18.60;99.90;;;;;;5117363;28;20779;-91
2022/05/26 07:44:36;;;;;;;9.23;1.63;;;18.70;99.90;;;;;;5116799;28;20734;-91
2022/05/26 07:47:03;;;;;;;3.70;1.80;;;18.80;99.90;;;;;;5116980;28;20424;-92
2022/05/26 07:49:33;;;;;;;3.57;1.63;;;18.90;99.90;;;;;;5115823;28;20434;-90
2022/05/26 07:52:01;;;;;;;2.33;1.93;;;19.30;99.90;;;;;;5116698;28;20424;-91
2022/05/26 07:54:28;;;;;;;2.57;1.37;;;19.50;99.90;;;;;;5116320;28;20477;-90
2022/05/26 07:56:56;;;;;;;5.23;1.73;;;19.80;99.90;;;;;;5117301;28;20465;-90
2022/05/26 07:59:23;;;;;;;6.27;1.83;;;19.90;99.90;;;;;;5117136;28;20490;-93
2022/05/26 08:01:50;;;;;;;4.40;1.43;;;20.20;99.90;;;;;;5118538;28;20514;-90
2022/05/26 08:04:17;;;;;;;3.77;1.87;;;20.30;99.90;;;;;;5117994;28;20522;-90
2022/05/26 08:06:47;;;;;;;3.77;1.30;;;20.30;99.90;;;;;;5118164;28;20499;-90
2022/05/26 08:09:14;;;;;;;3.73;1.57;;;20.30;99.90;;;;;;5121130;28;20426;-91
2022/05/26 08:11:42;;;;;;;4.70;1.73;;;20.30;99.90;;;;;;5136486;28;20487;-95
2022/05/26 08:14:09;;;;;;;2.80;1.50;;;20.10;99.90;;;;;;5136678;28;20487;-91
2022/05/26 08:16:36;;;;;;;1.50;1.40;;;20.00;99.90;;;;;;5115120;28;20478;-93
2022/05/26 08:19:03;;;;;;;2.93;1.53;;;20.30;99.90;;;;;;5115427;28;20924;-90
2022/05/26 08:21:30;;;;;;;2.00;1.43;;;20.80;99.90;;;;;;5115828;28;20455;-90
2022/05/26 08:24:00;;;;;;;3.53;1.30;;;20.90;99.90;;;;;;5115196;28;20517;-91
2022/05/26 08:26:28;;;;;;;2.07;1.33;;;21.10;99.90;;;;;;5115608;28;20809;-91
2022/05/26 08:28:55;;;;;;;4.53;1.50;;;21.30;99.90;;;;;;5107399;28;20893;-91
2022/05/26 08:31:22;;;;;;;4.77;1.60;;;21.40;99.90;;;;;;5094714;28;20847;-91
2022/05/26 08:39:42;;;;;;;2.63;1.50;;;21.80;99.90;;;;;;5033417;28;20839;-90
2022/05/26 08:42:16;;;;;;;2.60;1.40;;;22.10;99.90;;;;;;5035200;28;20828;-91
2022/05/26 08:44:43;;;;;;;2.87;1.50;;;;;;;;;;5048579;28;20467;-90
2022/05/26 08:47:13;;;;;;;2.00;1.50;;;21.80;99.90;;;;;;5055276;28;20436;-90
2022/05/26 08:49:42;;;;;;;4.60;1.60;;;21.70;99.90;;;;;;5055042;28;20459;-91
2022/05/26 08:52:14;;;;;;;3.40;1.17;;;21.40;99.90;;;;;;5055386;28;20458;-90
2022/05/26 08:54:46;;;;;;;4.20;1.80;;;21.20;99.90;;;;;;5055216;28;20506;-90
2022/05/26 08:57:16;;;;;;;4.73;1.83;;;21.00;99.90;;;;;;5055798;28;20446;-93
2022/05/26 08:59:45;;;;;;;7.30;1.80;;;20.80;99.90;;;;;;5055571;28;20456;-90
2022/05/26 09:02:24;;;;;;;2.87;1.80;;;20.80;99.90;;;;;;5055888;28;20428;-91
2022/05/26 09:04:51;;;;;;;1.77;1.67;;;21.10;99.90;;;;;;5054933;28;20507;-90
2022/05/26 09:13:06;;;;;;;1.80;1.30;;;21.80;99.90;;;;;;5054490;28;20416;-90
2022/05/26 09:15:35;;;;;;;3.07;1.60;;;22.30;99.90;;;;;;5054313;28;20571;-90
2022/05/26 09:18:11;;;;;;;4.50;1.37;;;22.80;99.90;;;;;;5054386;28;20456;-91
2022/05/26 09:20:40;;;;;;;3.50;1.60;;;23.40;99.90;;;;;;5054512;28;20461;-91
2022/05/26 09:23:21;;;;;;;4.13;1.57;;;23.10;99.90;;;;;;5054418;28;20457;-91
2022/05/26 09:25:52;;;;;;;5.33;1.60;;;22.30;99.90;;;;;;5054763;28;20502;-91
2022/05/26 09:28:28;;;;;;;3.30;1.67;;;21.90;99.90;;;;;;5054277;28;20456;-90
2022/05/26 09:30:55;;;;;;;3.93;1.63;;;21.80;99.90;;;;;;5054505;28;20452;-91
2022/05/26 09:33:29;;;;;;;3.20;1.27;;;21.90;99.90;;;;;;5054488;28;20459;-91
2022/05/26 09:36:15;;;;;;;3.00;1.50;;;22.20;99.90;;;;;;5054604;28;20471;-90
2022/05/26 09:38:43;;;;;;;2.60;1.53;;;22.20;99.90;;;;;;5054259;28;20474;-90
2022/05/26 09:41:15;;;;;;;3.60;1.20;;;22.10;99.90;;;;;;5054037;28;20486;-91
2022/05/26 09:43:49;;;;;;;2.60;1.50;;;21.80;99.90;;;;;;5053420;28;20507;-91
2022/05/26 09:46:16;;;;;;;2.17;1.30;;;21.80;99.90;;;;;;5054086;28;20502;-91
2022/05/26 09:48:46;;;;;;;7.00;4.03;;;22.00;99.90;;;;;;5054106;28;20732;-92
2022/05/26 09:51:21;;;;;;;2.13;1.67;;;22.00;99.90;;;;;;5054120;28;20459;-90
2022/05/26 09:53:48;;;;;;;4.07;1.53;;;22.20;99.90;;;;;;5054062;28;20483;-90
2022/05/26 09:56:30;;;;;;;2.03;1.37;;;22.10;99.90;;;;;;5059584;28;20502;-89
2022/05/26 09:58:57;;;;;;;3.30;1.60;;;;;;;;;;5054191;28;20463;-90
2022/05/26 10:01:41;;;;;;;10.07;2.07;;;22.70;99.90;;;;;;5053872;28;20460;-91
2022/05/26 10:04:20;;;;;;;3.50;1.50;;;23.10;99.90;;;;;;5053615;28;20899;-90
2022/05/26 10:06:53;;;;;;;1.93;1.37;;;23.10;99.90;;;;;;5053895;28;20452;-90
2022/05/26 10:09:28;;;;;;;3.90;1.83;;;23.30;99.90;;;;;;5053495;28;20445;-91
2022/05/26 10:12:07;;;;;;;4.33;1.90;;;22.50;99.90;;;;;;5053647;28;20831;-90
2022/05/26 10:14:55;;;;;;;4.27;1.40;;;22.40;99.90;;;;;;5053849;28;20473;-89
2022/05/26 10:17:33;;;;;;;4.97;1.50;;;22.30;99.90;;;;;;5054401;28;20817;-91
2022/05/26 10:20:21;;;;;;;6.03;1.67;;;22.40;99.90;;;;;;5054280;28;20417;-92
2022/05/26 10:23:00;;;;;;;2.90;1.50;;;21.70;99.90;;;;;;5054320;28;20810;-90
2022/05/26 10:25:35;;;;;;;3.47;1.83;;;21.60;99.90;;;;;;5053544;28;20467;-90
2022/05/26 10:28:24;;;;;;;5.53;4.20;;;21.40;99.90;;;;;;5054495;28;20455;-90
2022/05/26 10:31:01;;;;;;;13.93;7.20;;;21.20;99.90;;;;;;5073833;28;20451;-91
2022/05/26 10:33:58;;;;;;;13.13;8.30;;;21.10;99.90;;;;;;5074005;28;20482;-90
2022/05/26 10:36:40;;;;;;;5.97;3.60;;;21.20;99.90;;;;;;5071965;28;20487;-91
2022/05/26 10:39:10;;;;;;;5.17;3.73;;;21.60;99.90;;;;;;5080834;28;20459;-91
2022/05/26 10:41:42;;;;;;;7.40;2.10;;;21.40;99.90;;;;;;5073399;28;21179;-91
2022/05/26 10:44:19;;;;;;;2.40;2.20;;;21.40;99.90;;;;;;5073442;28;20483;-91
2022/05/26 10:46:50;;;;;;;3.10;1.77;;;21.20;99.90;;;;;;5073330;28;20439;-91
2022/05/26 10:49:21;;;;;;;6.30;2.40;;;21.10;99.90;;;;;;5073457;28;20467;-89
2022/05/26 10:51:53;;;;;;;3.13;2.70;;;21.20;99.90;;;;;;5074013;28;20451;-91
2022/05/26 10:54:31;;;;;;;4.67;2.47;;;21.10;99.90;;;;;;5073751;28;20455;-91
2022/05/26 10:57:03;;;;;;;4.27;2.03;;;21.00;99.90;;;;;;5077363;28;20482;-91
2022/05/26 10:59:37;;;;;;;5.43;3.47;;;20.80;99.90;;;;;;5077645;28;20455;-90
2022/05/26 11:02:15;;;;;;;5.77;2.53;;;20.60;99.90;;;;;;5077338;28;20455;-91
2022/05/26 11:04:48;;;;;;;6.20;2.30;;;20.50;99.90;;;;;;5077312;28;20512;-90
2022/05/26 11:07:19;;;;;;;3.33;1.87;;;20.50;99.90;;;;;;5076980;28;20473;-90
2022/05/26 11:09:51;;;;;;;1.83;1.73;;;20.30;99.90;;;;;;5076985;28;20416;-89
2022/05/26 11:12:27;;;;;;;3.00;2.07;;;20.50;99.90;;;;;;5077064;28;20442;-91
2022/05/26 11:17:49;;;;;;;4.90;2.80;;;20.20;99.90;;;;;;5064718;28;20428;-91
2022/05/26 11:20:21;;;;;;;5.53;2.20;;;20.30;99.90;;;;;;5057097;28;20492;-91
2022/05/26 11:22:49;;;;;;;2.63;1.80;;;20.80;99.90;;;;;;5057756;28;20452;-90
2022/05/26 11:25:21;;;;;;;8.93;1.83;;;21.40;99.90;;;;;;5056902;28;21008;-92
2022/05/26 11:27:53;;;;;;;6.23;1.70;;;22.10;99.90;;;;;;5056868;28;20452;-90
2022/05/26 11:36:10;;;;;;;2.10;1.80;;;22.40;99.90;;;;;;5050895;28;20490;-91
2022/05/26 11:38:42;;;;;;;4.57;1.73;;;22.90;99.90;;;;;;5076364;28;20455;-91
2022/05/26 11:41:12;;;;;;;4.40;1.80;;;23.20;99.90;;;;;;5076473;28;20935;-91
2022/05/26 11:43:44;;;;;;;2.20;1.40;;;23.70;99.90;;;;;;5076363;28;20562;-90
2022/05/26 11:46:33;;;;;;;4.30;2.10;;;23.60;99.90;;;;;;5077714;28;20463;-90
2022/05/26 11:49:00;;;;;;;2.00;1.50;;;23.70;99.90;;;;;;5076340;28;20513;-91
2022/05/26 11:51:30;;;;;;;3.33;1.70;;;23.80;99.90;;;;;;5076669;28;20459;-90
2022/05/26 11:53:59;;;;;;;3.43;1.50;;;24.00;99.90;;;;;;5076249;28;20525;-91
2022/05/26 11:56:45;;;;;;;3.87;2.03;;;23.30;99.90;;;;;;5076314;28;20483;-90
2022/05/26 11:59:48;;;;;;;6.60;1.90;;;23.20;99.90;;;;;;5075928;28;20518;-91
2022/05/26 12:02:28;;;;;;;3.20;2.03;;;23.40;99.90;;;;;;5076860;28;20928;-91
2022/05/26 12:04:55;;;;;;;3.30;2.17;;;23.70;99.90;;;;;;5075886;28;20475;-90
2022/05/26 12:07:41;;;;;;;5.60;1.60;;;23.30;99.90;;;;;;5075893;28;20447;-90
2022/05/26 12:10:23;;;;;;;4.83;2.20;;;23.20;99.90;;;;;;5076346;28;20446;-91
2022/05/26 12:12:50;;;;;;;2.83;2.17;;;23.00;99.90;;;;;;5076240;28;20451;-91
2022/05/26 12:15:20;;;;;;;6.30;1.90;;;22.90;99.90;;;;;;5076129;28;20471;-91
2022/05/26 12:17:50;;;;;;;1.40;1.30;;;22.90;99.90;;;;;;5062871;28;20480;-90
2022/05/26 12:20:38;;;;;;;3.13;1.80;;;23.20;99.90;;;;;;5056104;28;20457;-91
2022/05/26 12:23:29;;;;;;;4.73;1.57;;;23.60;99.90;;;;;;5055906;28;20456;-90
2022/05/26 12:26:28;;;;;;;3.77;1.47;;;23.60;99.90;;;;;;5056177;28;20452;-90
2022/05/26 12:28:56;;;;;;;4.10;1.97;;;24.10;99.90;;;;;;5022398;28;20464;-90
2022/05/26 12:31:23;;;;;;;3.30;1.70;;;24.50;99.90;;;;;;5059020;28;20479;-90
2022/05/26 12:34:17;;;;;;;5.33;2.10;;;25.00;99.90;;;;;;5067142;28;20452;-91
2022/05/26 12:36:56;;;;;;;2.90;1.73;;;24.50;99.90;;;;;;5071608;28;20995;-89
2022/05/26 12:39:53;;;;;;;4.40;1.80;;;24.50;99.90;;;;;;5055355;28;20560;-88
2022/05/26 12:42:31;;;;;;;2.17;1.50;;;24.70;99.90;;;;;;5054878;28;20459;-89
2022/05/26 12:45:27;;;;;;;4.40;1.67;;;25.00;99.90;;;;;;5054284;28;20472;-89
2022/05/26 12:48:40;;;;;;;4.50;1.90;;;25.20;99.90;;;;;;5049749;28;20457;-89
2022/05/26 12:51:13;;;;;;;3.10;1.40;;;24.70;99.90;;;;;;5048925;28;20459;-89
2022/05/26 12:53:50;;;;;;;2.50;1.80;;;24.20;99.90;;;;;;5055974;28;20479;-89
2022/05/26 12:56:24;;;;;;;5.63;2.07;;;23.60;99.90;;;;;;5055657;28;20480;-90
2022/05/26 12:58:56;;;;;;;2.73;1.87;;;23.80;99.90;;;;;;5056092;28;20464;-90
2022/05/26 13:01:25;;;;;;;2.57;1.77;;;24.40;99.90;;;;;;5055803;28;20839;-90
2022/05/26 13:04:03;;;;;;;2.70;1.70;;;24.60;99.90;;;;;;5055880;28;21031;-90
2022/05/26 13:06:34;;;;;;;3.60;1.90;;;24.40;99.90;;;;;;5055090;28;20574;-89
2022/05/26 13:09:06;;;;;;;2.43;1.63;;;23.80;99.90;;;;;;5055091;28;20468;-89
2022/05/26 13:11:37;;;;;;;2.30;1.80;;;23.40;99.90;;;;;;5054892;28;20453;-90
2022/05/26 13:14:09;;;;;;;4.40;2.63;;;23.10;99.90;;;;;;5054881;28;20477;-89
2022/05/26 13:16:38;;;;;;;10.00;2.70;;;23.20;99.90;;;;;;5056612;28;20476;-90
2022/05/26 13:19:11;;;;;;;2.87;2.20;;;23.60;99.90;;;;;;5053466;28;20815;-90
2022/05/26 13:21:42;;;;;;;4.40;2.33;;;23.70;99.90;;;;;;5055104;28;20452;-90
2022/05/26 13:24:16;;;;;;;3.50;1.93;;;23.50;99.90;;;;;;5055304;28;20484;-91
2022/05/26 13:26:43;;;;;;;2.70;1.70;;;23.40;99.90;;;;;;5057233;28;20875;-91
2022/05/26 13:29:11;;;;;;;3.87;2.30;;;23.20;99.90;;;;;;5054355;28;20551;-90
2022/05/26 13:34:28;;;;;;;4.20;2.20;;;22.70;99.90;;;;;;5053181;28;21102;-92
2022/05/26 13:36:56;;;;;;;3.87;2.73;;;22.70;99.90;;;;;;5053374;28;20484;-90
2022/05/26 13:39:25;;;;;;;4.43;2.17;;;22.80;99.90;;;;;;5053141;28;20487;-90
2022/05/26 13:41:54;;;;;;;2.17;1.97;;;22.80;99.90;;;;;;5053592;28;20448;-89
2022/05/26 13:44:28;;;;;;;2.73;1.97;;;23.00;99.90;;;;;;5052999;28;21010;-90
2022/05/26 13:46:57;;;;;;;4.17;2.73;;;22.70;99.90;;;;;;5053108;28;20460;-90
2022/05/26 13:49:32;;;;;;;4.20;2.20;;;22.50;99.90;;;;;;5053147;28;20457;-90
2022/05/26 13:52:08;;;;;;;3.93;2.37;;;22.70;99.90;;;;;;5053345;28;20483;-89
2022/05/26 13:54:38;;;;;;;2.30;2.10;;;23.20;99.90;;;;;;5054879;28;20988;-89
2022/05/26 13:57:14;;;;;;;2.80;2.20;;;23.50;99.90;;;;;;5054308;28;20508;-91
2022/05/26 13:59:45;;;;;;;5.97;3.67;;;23.40;99.90;;;;;;5053293;28;20456;-90
2022/05/26 14:02:21;;;;;;;3.50;1.83;;;23.30;99.90;;;;;;5053332;28;20457;-90
2022/05/26 14:05:04;;;;;;;2.40;1.77;;;23.30;99.90;;;;;;5052855;28;20471;-90
2022/05/26 14:07:35;;;;;;;3.20;1.73;;;23.10;99.90;;;;;;5053037;28;20456;-90
2022/05/26 14:10:10;;;;;;;3.40;1.57;;;23.00;99.90;;;;;;5053117;28;20641;-90
2022/05/26 14:12:38;;;;;;;7.23;2.63;;;23.00;99.90;;;;;;5053483;28;20543;-90
2022/05/26 14:15:05;;;;;;;4.60;2.10;;;23.00;99.90;;;;;;5053277;28;20480;-91
2022/05/26 14:17:35;;;;;;;4.03;1.90;;;23.20;99.90;;;;;;5053181;28;20479;-89
2022/05/26 14:20:04;;;;;;;2.80;1.90;;;22.80;99.90;;;;;;5053529;28;20448;-89
2022/05/26 14:22:35;;;;;;;4.70;1.80;;;22.80;99.90;;;;;;5052847;28;20979;-88
2022/05/26 14:25:03;;;;;;;4.23;1.60;;;23.00;99.90;;;;;;5053190;28;20844;-89
2022/05/26 14:27:31;;;;;;;4.20;2.00;;;23.30;99.90;;;;;;5052993;28;20460;-90
2022/05/26 14:30:00;;;;;;;6.27;2.47;;;23.80;99.90;;;;;;5069262;28;20458;-91
2022/05/26 14:32:30;;;;;;;6.13;2.13;;;24.20;99.90;;;;;;5073264;28;20582;-91
2022/05/26 14:34:59;;;;;;;2.43;2.00;;;24.50;99.90;;;;;;5072634;28;20858;-90
2022/05/26 14:37:29;;;;;;;2.60;1.43;;;24.50;99.90;;;;;;5073868;28;20475;-91
2022/05/26 14:39:58;;;;;;;2.10;1.60;;;23.90;99.90;;;;;;5072999;28;20472;-92
2022/05/26 14:42:31;;;;;;;3.70;2.10;;;23.30;99.90;;;;;;5072921;28;20458;-91
2022/05/26 14:45:00;;;;;;;3.40;2.17;;;22.70;99.90;;;;;;5073080;28;20475;-91
2022/05/26 14:47:28;;;;;;;4.30;1.93;;;22.30;99.90;;;;;;5073331;28;20460;-91
2022/05/26 14:49:55;;;;;;;3.50;1.80;;;22.40;99.90;;;;;;5073024;28;20463;-91
2022/05/26 14:52:44;;;;;;;4.60;1.77;;;22.80;99.90;;;;;;5072987;28;20451;-91
2022/05/26 14:55:29;;;;;;;4.23;2.00;;;23.20;99.90;;;;;;5073386;28;20471;-92
2022/05/26 14:57:57;;;;;;;2.57;1.80;;;;;;;;;;5072895;28;20546;-91
2022/05/26 15:00:32;;;;;;;4.00;1.90;;;22.90;99.90;;;;;;5073324;28;20458;-91
2022/05/26 15:02:59;;;;;;;3.20;1.60;;;;;;;;;;5073138;28;20459;-91
2022/05/26 15:05:29;;;;;;;3.13;1.70;;;23.00;99.90;;;;;;5072600;28;20471;-91
2022/05/26 15:07:56;;;;;;;5.40;1.70;;;22.90;99.90;;;;;;5054782;28;20936;-93
2022/05/26 15:10:24;;;;;;;5.63;2.00;;;22.90;99.90;;;;;;5072786;28;20463;-91
2022/05/26 15:12:52;;;;;;;2.90;2.00;;;22.80;99.90;;;;;;5072704;28;20491;-91
2022/05/26 15:15:20;;;;;;;2.20;1.90;;;22.90;99.90;;;;;;5072394;28;20497;-91
2022/05/26 15:17:48;;;;;;;3.23;1.80;;;22.90;99.90;;;;;;5072687;28;20475;-91
2022/05/26 15:20:17;;;;;;;3.43;2.00;;;22.80;99.90;;;;;;5072817;28;20526;-92
2022/05/26 15:22:45;;;;;;;4.00;1.93;;;22.60;99.90;;;;;;5072813;28;20455;-91
2022/05/26 15:25:14;;;;;;;5.87;2.10;;;22.40;99.90;;;;;;5072724;28;20474;-91
2022/05/26 15:27:42;;;;;;;3.00;2.43;;;22.10;99.90;;;;;;5072747;28;20458;-92
2022/05/26 15:30:14;;;;;;;7.00;2.30;;;22.20;99.90;;;;;;5072775;28;20455;-91
2022/05/26 15:32:43;;;;;;;7.23;2.53;;;22.50;99.90;;;;;;5072843;28;20517;-91
2022/05/26 15:35:13;;;;;;;4.47;1.60;;;22.50;99.90;;;;;;5074323;28;20476;-91
2022/05/26 15:37:41;;;;;;;3.70;2.10;;;22.60;99.90;;;;;;5080282;28;20475;-91
2022/05/26 15:40:11;;;;;;;2.30;1.90;;;22.60;99.90;;;;;;5081428;28;20472;-91
2022/05/26 15:42:38;;;;;;;8.37;4.80;;;22.60;99.90;;;;;;5075432;28;20965;-90
2022/05/26 15:45:08;;;;;;;3.70;2.23;;;22.80;99.90;;;;;;5076027;28;20480;-90
2022/05/26 15:47:37;;;;;;;3.50;2.07;;;23.10;99.90;;;;;;5076127;28;20505;-91
2022/05/26 15:50:10;;;;;;;4.13;1.80;;;23.10;99.90;;;;;;5076445;28;20460;-91
2022/05/26 15:52:37;;;;;;;4.97;2.00;;;22.90;99.90;;;;;;5058522;28;20454;-91
2022/05/26 15:55:05;;;;;;;4.47;2.00;;;23.00;99.90;;;;;;5076062;28;20476;-91
2022/05/26 15:57:33;;;;;;;3.30;1.90;;;22.80;99.90;;;;;;5076468;28;20566;-91
2022/05/26 16:00:00;;;;;;;4.30;2.03;;;22.80;99.90;;;;;;5096666;28;20432;-96
2022/05/26 16:02:29;;;;;;;4.90;1.90;;;22.50;99.90;;;;;;5101378;28;20498;-96
2022/05/26 16:04:56;;;;;;;4.07;1.83;;;22.30;99.90;;;;;;5100827;28;20460;-95
2022/05/26 16:07:23;;;;;;;2.30;1.80;;;;;;;;;;5100797;28;20430;-96
2022/05/26 16:09:50;;;;;;;4.40;2.10;;;;;;;;;;5100660;28;20440;-96